sensor_id;sensor_type;location;lat;lon;timestamp;P1;durP1;ratioP1;P2;durP2;ratioP2
16642;SDS011;8435;52.184;5.406;2022-12-26T00:01:24;12.67;;;10.63;;
16642;SDS011;8435;52.184;5.406;2022-12-26T00:03:53;11.73;;;9.60;;
16642;SDS011;8435;52.184;5.406;2022-12-26T00:06:21;10.87;;;9.73;;
16642;SDS011;8435;52.184;5.406;2022-12-26T00:08:48;12.63;;;10.80;;
16642;SDS011;8435;52.184;5.406;2022-12-26T00:11:18;11.60;;;9.90;;
16642;SDS011;8435;52.184;5.406;2022-12-26T00:13:45;12.30;;;10.57;;
16642;SDS011;8435;52.184;5.406;2022-12-26T00:16:12;12.37;;;11.07;;
16642;SDS011;8435;52.184;5.406;2022-12-26T00:18:40;13.03;;;11.20;;
16642;SDS011;8435;52.184;5.406;2022-12-26T00:21:08;13.17;;;10.83;;
16642;SDS011;8435;52.184;5.406;2022-12-26T00:23:36;13.43;;;11.27;;
16642;SDS011;8435;52.184;5.406;2022-12-26T00:26:04;11.83;;;10.60;;
16642;SDS011;8435;52.184;5.406;2022-12-26T00:28:33;12.77;;;10.97;;
16642;SDS011;8435;52.184;5.406;2022-12-26T00:31:02;13.90;;;12.13;;
16642;SDS011;8435;52.184;5.406;2022-12-26T00:33:29;12.60;;;11.07;;
16642;SDS011;8435;52.184;5.406;2022-12-26T00:35:59;12.70;;;10.70;;
16642;SDS011;8435;52.184;5.406;2022-12-26T00:38:26;12.73;;;11.43;;
16642;SDS011;8435;52.184;5.406;2022-12-26T00:40:53;13.00;;;11.53;;
16642;SDS011;8435;52.184;5.406;2022-12-26T00:43:20;13.43;;;11.67;;
16642;SDS011;8435;52.184;5.406;2022-12-26T00:45:48;13.97;;;11.97;;
16642;SDS011;8435;52.184;5.406;2022-12-26T00:48:14;13.00;;;11.63;;
16642;SDS011;8435;52.184;5.406;2022-12-26T00:50:41;14.57;;;12.83;;
16642;SDS011;8435;52.184;5.406;2022-12-26T00:53:08;14.30;;;12.80;;
16642;SDS011;8435;52.184;5.406;2022-12-26T00:55:35;14.83;;;12.87;;
16642;SDS011;8435;52.184;5.406;2022-12-26T00:58:01;14.80;;;13.27;;
16642;SDS011;8435;52.184;5.406;2022-12-26T01:00:28;16.80;;;14.23;;
16642;SDS011;8435;52.184;5.406;2022-12-26T01:02:56;18.00;;;14.47;;
16642;SDS011;8435;52.184;5.406;2022-12-26T01:05:23;15.97;;;13.97;;
16642;SDS011;8435;52.184;5.406;2022-12-26T01:07:50;16.70;;;13.47;;
16642;SDS011;8435;52.184;5.406;2022-12-26T01:10:17;16.07;;;14.13;;
16642;SDS011;8435;52.184;5.406;2022-12-26T01:12:44;14.53;;;13.03;;
16642;SDS011;8435;52.184;5.406;2022-12-26T01:15:11;13.47;;;11.50;;
16642;SDS011;8435;52.184;5.406;2022-12-26T01:17:37;12.07;;;10.73;;
16642;SDS011;8435;52.184;5.406;2022-12-26T01:20:06;12.47;;;10.77;;
16642;SDS011;8435;52.184;5.406;2022-12-26T01:22:33;12.97;;;11.03;;
16642;SDS011;8435;52.184;5.406;2022-12-26T01:25:01;12.07;;;10.63;;
16642;SDS011;8435;52.184;5.406;2022-12-26T01:27:30;10.97;;;9.83;;
16642;SDS011;8435;52.184;5.406;2022-12-26T01:29:57;12.73;;;11.10;;
16642;SDS011;8435;52.184;5.406;2022-12-26T01:32:24;12.37;;;11.07;;
16642;SDS011;8435;52.184;5.406;2022-12-26T01:34:51;12.53;;;11.30;;
16642;SDS011;8435;52.184;5.406;2022-12-26T01:37:20;14.13;;;12.23;;
16642;SDS011;8435;52.184;5.406;2022-12-26T01:39:47;12.27;;;10.97;;
16642;SDS011;8435;52.184;5.406;2022-12-26T01:42:18;12.03;;;10.77;;
16642;SDS011;8435;52.184;5.406;2022-12-26T01:45:03;13.53;;;12.13;;
16642;SDS011;8435;52.184;5.406;2022-12-26T01:47:39;13.63;;;11.03;;
16642;SDS011;8435;52.184;5.406;2022-12-26T01:50:13;13.90;;;11.97;;
16642;SDS011;8435;52.184;5.406;2022-12-26T01:52:51;14.47;;;12.97;;
16642;SDS011;8435;52.184;5.406;2022-12-26T01:55:19;14.20;;;12.30;;
16642;SDS011;8435;52.184;5.406;2022-12-26T01:57:48;14.13;;;12.50;;
16642;SDS011;8435;52.184;5.406;2022-12-26T02:00:20;14.17;;;12.60;;
16642;SDS011;8435;52.184;5.406;2022-12-26T02:02:46;15.53;;;13.93;;
16642;SDS011;8435;52.184;5.406;2022-12-26T02:05:47;15.30;;;13.70;;
16642;SDS011;8435;52.184;5.406;2022-12-26T02:08:16;16.63;;;14.87;;
16642;SDS011;8435;52.184;5.406;2022-12-26T02:10:46;16.47;;;14.77;;
16642;SDS011;8435;52.184;5.406;2022-12-26T02:13:16;17.13;;;15.10;;
16642;SDS011;8435;52.184;5.406;2022-12-26T02:15:43;18.13;;;16.23;;
16642;SDS011;8435;52.184;5.406;2022-12-26T02:18:10;17.37;;;15.43;;
16642;SDS011;8435;52.184;5.406;2022-12-26T02:20:40;17.93;;;15.47;;
16642;SDS011;8435;52.184;5.406;2022-12-26T02:23:22;19.10;;;17.07;;
16642;SDS011;8435;52.184;5.406;2022-12-26T02:26:29;19.87;;;17.13;;
16642;SDS011;8435;52.184;5.406;2022-12-26T02:29:38;17.37;;;15.17;;
16642;SDS011;8435;52.184;5.406;2022-12-26T02:32:24;19.77;;;16.47;;
16642;SDS011;8435;52.184;5.406;2022-12-26T02:35:02;18.67;;;16.13;;
16642;SDS011;8435;52.184;5.406;2022-12-26T02:37:42;18.23;;;16.20;;
16642;SDS011;8435;52.184;5.406;2022-12-26T02:43:10;18.23;;;15.70;;
16642;SDS011;8435;52.184;5.406;2022-12-26T02:45:47;18.03;;;16.03;;
16642;SDS011;8435;52.184;5.406;2022-12-26T02:48:41;17.40;;;15.40;;
16642;SDS011;8435;52.184;5.406;2022-12-26T02:51:15;17.53;;;15.13;;
16642;SDS011;8435;52.184;5.406;2022-12-26T02:54:08;17.03;;;15.23;;
16642;SDS011;8435;52.184;5.406;2022-12-26T02:57:02;16.63;;;14.83;;
16642;SDS011;8435;52.184;5.406;2022-12-26T03:00:00;18.37;;;15.60;;
16642;SDS011;8435;52.184;5.406;2022-12-26T03:02:49;18.10;;;15.03;;
16642;SDS011;8435;52.184;5.406;2022-12-26T03:05:38;16.27;;;14.53;;
16642;SDS011;8435;52.184;5.406;2022-12-26T03:08:26;17.23;;;15.30;;
16642;SDS011;8435;52.184;5.406;2022-12-26T03:11:13;16.60;;;15.00;;
16642;SDS011;8435;52.184;5.406;2022-12-26T03:14:00;16.70;;;15.00;;
16642;SDS011;8435;52.184;5.406;2022-12-26T03:16:31;17.27;;;15.57;;
16642;SDS011;8435;52.184;5.406;2022-12-26T03:19:16;16.73;;;15.03;;
16642;SDS011;8435;52.184;5.406;2022-12-26T03:21:46;17.27;;;15.50;;
16642;SDS011;8435;52.184;5.406;2022-12-26T03:24:13;17.00;;;15.27;;
16642;SDS011;8435;52.184;5.406;2022-12-26T03:26:45;17.93;;;16.03;;
16642;SDS011;8435;52.184;5.406;2022-12-26T03:29:15;17.30;;;15.30;;
16642;SDS011;8435;52.184;5.406;2022-12-26T03:32:15;16.77;;;15.07;;
16642;SDS011;8435;52.184;5.406;2022-12-26T03:34:43;17.13;;;15.33;;
16642;SDS011;8435;52.184;5.406;2022-12-26T03:37:26;17.07;;;15.10;;
16642;SDS011;8435;52.184;5.406;2022-12-26T03:40:03;17.17;;;15.37;;
16642;SDS011;8435;52.184;5.406;2022-12-26T03:42:59;17.00;;;15.23;;
16642;SDS011;8435;52.184;5.406;2022-12-26T03:45:52;17.77;;;15.97;;
16642;SDS011;8435;52.184;5.406;2022-12-26T03:48:43;17.50;;;15.77;;
16642;SDS011;8435;52.184;5.406;2022-12-26T03:51:41;17.80;;;15.90;;
16642;SDS011;8435;52.184;5.406;2022-12-26T03:54:35;17.60;;;15.90;;
16642;SDS011;8435;52.184;5.406;2022-12-26T03:57:29;18.13;;;16.30;;
16642;SDS011;8435;52.184;5.406;2022-12-26T04:00:18;18.50;;;16.50;;
16642;SDS011;8435;52.184;5.406;2022-12-26T04:03:04;17.97;;;16.17;;
16642;SDS011;8435;52.184;5.406;2022-12-26T04:05:51;18.07;;;16.17;;
16642;SDS011;8435;52.184;5.406;2022-12-26T04:08:41;17.70;;;15.90;;
16642;SDS011;8435;52.184;5.406;2022-12-26T04:11:29;16.97;;;15.20;;
16642;SDS011;8435;52.184;5.406;2022-12-26T04:14:17;17.43;;;14.90;;
16642;SDS011;8435;52.184;5.406;2022-12-26T04:17:11;16.50;;;14.77;;
16642;SDS011;8435;52.184;5.406;2022-12-26T04:20:09;15.30;;;13.77;;
16642;SDS011;8435;52.184;5.406;2022-12-26T04:22:42;15.80;;;14.20;;
16642;SDS011;8435;52.184;5.406;2022-12-26T04:25:32;15.70;;;14.10;;
16642;SDS011;8435;52.184;5.406;2022-12-26T04:28:19;15.33;;;13.73;;
16642;SDS011;8435;52.184;5.406;2022-12-26T04:31:06;15.30;;;13.70;;
16642;SDS011;8435;52.184;5.406;2022-12-26T04:33:55;15.20;;;13.80;;
16642;SDS011;8435;52.184;5.406;2022-12-26T04:36:43;15.23;;;13.73;;
16642;SDS011;8435;52.184;5.406;2022-12-26T04:39:33;14.30;;;12.83;;
16642;SDS011;8435;52.184;5.406;2022-12-26T04:42:19;14.20;;;12.70;;
16642;SDS011;8435;52.184;5.406;2022-12-26T04:45:07;13.90;;;12.50;;
16642;SDS011;8435;52.184;5.406;2022-12-26T04:47:37;14.77;;;13.27;;
16642;SDS011;8435;52.184;5.406;2022-12-26T04:50:24;15.07;;;13.20;;
16642;SDS011;8435;52.184;5.406;2022-12-26T04:52:49;13.07;;;11.77;;
16642;SDS011;8435;52.184;5.406;2022-12-26T04:55:25;13.27;;;12.07;;
16642;SDS011;8435;52.184;5.406;2022-12-26T04:57:53;12.67;;;11.40;;
16642;SDS011;8435;52.184;5.406;2022-12-26T05:00:25;12.83;;;11.57;;
16642;SDS011;8435;52.184;5.406;2022-12-26T05:02:52;13.47;;;12.17;;
16642;SDS011;8435;52.184;5.406;2022-12-26T05:05:38;12.83;;;11.63;;
16642;SDS011;8435;52.184;5.406;2022-12-26T05:08:34;12.03;;;10.93;;
16642;SDS011;8435;52.184;5.406;2022-12-26T05:11:20;13.47;;;12.17;;
16642;SDS011;8435;52.184;5.406;2022-12-26T05:13:47;14.50;;;12.97;;
16642;SDS011;8435;52.184;5.406;2022-12-26T05:16:15;13.80;;;12.50;;
16642;SDS011;8435;52.184;5.406;2022-12-26T05:18:59;14.40;;;12.90;;
16642;SDS011;8435;52.184;5.406;2022-12-26T05:21:43;14.70;;;13.20;;
16642;SDS011;8435;52.184;5.406;2022-12-26T05:24:28;15.70;;;13.97;;
16642;SDS011;8435;52.184;5.406;2022-12-26T05:27:17;16.60;;;14.90;;
16642;SDS011;8435;52.184;5.406;2022-12-26T05:30:02;16.87;;;14.50;;
16642;SDS011;8435;52.184;5.406;2022-12-26T05:32:34;16.67;;;14.90;;
16642;SDS011;8435;52.184;5.406;2022-12-26T05:35:18;15.67;;;14.07;;
16642;SDS011;8435;52.184;5.406;2022-12-26T05:37:45;16.00;;;14.30;;
16642;SDS011;8435;52.184;5.406;2022-12-26T05:40:12;16.60;;;14.90;;
16642;SDS011;8435;52.184;5.406;2022-12-26T05:42:39;17.10;;;14.40;;
16642;SDS011;8435;52.184;5.406;2022-12-26T05:45:05;17.33;;;14.63;;
16642;SDS011;8435;52.184;5.406;2022-12-26T05:47:34;16.40;;;14.00;;
16642;SDS011;8435;52.184;5.406;2022-12-26T05:50:01;14.77;;;13.13;;
16642;SDS011;8435;52.184;5.406;2022-12-26T05:52:27;16.07;;;14.40;;
16642;SDS011;8435;52.184;5.406;2022-12-26T05:54:54;14.17;;;12.63;;
16642;SDS011;8435;52.184;5.406;2022-12-26T05:57:21;14.80;;;13.17;;
16642;SDS011;8435;52.184;5.406;2022-12-26T05:59:50;14.13;;;12.70;;
16642;SDS011;8435;52.184;5.406;2022-12-26T06:02:17;13.87;;;12.47;;
16642;SDS011;8435;52.184;5.406;2022-12-26T06:04:45;15.57;;;13.07;;
16642;SDS011;8435;52.184;5.406;2022-12-26T06:07:12;13.57;;;12.17;;
16642;SDS011;8435;52.184;5.406;2022-12-26T06:09:39;12.40;;;11.17;;
16642;SDS011;8435;52.184;5.406;2022-12-26T06:12:06;12.73;;;11.43;;
16642;SDS011;8435;52.184;5.406;2022-12-26T06:14:32;12.60;;;11.30;;
16642;SDS011;8435;52.184;5.406;2022-12-26T06:16:59;11.90;;;10.63;;
16642;SDS011;8435;52.184;5.406;2022-12-26T06:19:26;11.30;;;10.17;;
16642;SDS011;8435;52.184;5.406;2022-12-26T06:21:54;10.93;;;9.37;;
16642;SDS011;8435;52.184;5.406;2022-12-26T06:24:20;12.07;;;10.77;;
16642;SDS011;8435;52.184;5.406;2022-12-26T06:26:47;11.10;;;10.00;;
16642;SDS011;8435;52.184;5.406;2022-12-26T06:29:14;10.73;;;9.73;;
16642;SDS011;8435;52.184;5.406;2022-12-26T06:31:41;10.43;;;9.23;;
16642;SDS011;8435;52.184;5.406;2022-12-26T06:34:08;10.23;;;9.23;;
16642;SDS011;8435;52.184;5.406;2022-12-26T06:36:37;9.40;;;8.50;;
16642;SDS011;8435;52.184;5.406;2022-12-26T06:39:05;8.73;;;7.83;;
16642;SDS011;8435;52.184;5.406;2022-12-26T06:41:32;8.60;;;7.80;;
16642;SDS011;8435;52.184;5.406;2022-12-26T06:43:59;8.77;;;7.97;;
16642;SDS011;8435;52.184;5.406;2022-12-26T06:46:26;8.30;;;7.40;;
16642;SDS011;8435;52.184;5.406;2022-12-26T06:48:53;9.27;;;8.27;;
16642;SDS011;8435;52.184;5.406;2022-12-26T06:51:21;8.30;;;7.50;;
16642;SDS011;8435;52.184;5.406;2022-12-26T06:53:49;8.90;;;7.77;;
16642;SDS011;8435;52.184;5.406;2022-12-26T06:56:18;8.40;;;7.50;;
16642;SDS011;8435;52.184;5.406;2022-12-26T06:58:46;7.83;;;7.07;;
16642;SDS011;8435;52.184;5.406;2022-12-26T07:01:17;7.67;;;6.77;;
16642;SDS011;8435;52.184;5.406;2022-12-26T07:03:44;7.83;;;7.13;;
16642;SDS011;8435;52.184;5.406;2022-12-26T07:06:12;7.77;;;6.97;;
16642;SDS011;8435;52.184;5.406;2022-12-26T07:08:45;7.93;;;7.23;;
16642;SDS011;8435;52.184;5.406;2022-12-26T07:11:12;6.67;;;5.97;;
16642;SDS011;8435;52.184;5.406;2022-12-26T07:13:41;6.90;;;6.30;;
16642;SDS011;8435;52.184;5.406;2022-12-26T07:16:08;6.77;;;6.07;;
16642;SDS011;8435;52.184;5.406;2022-12-26T07:18:35;7.33;;;6.63;;
16642;SDS011;8435;52.184;5.406;2022-12-26T07:21:03;6.83;;;6.10;;
16642;SDS011;8435;52.184;5.406;2022-12-26T07:23:31;7.40;;;6.70;;
16642;SDS011;8435;52.184;5.406;2022-12-26T07:25:57;6.63;;;6.03;;
16642;SDS011;8435;52.184;5.406;2022-12-26T07:28:25;5.97;;;5.43;;
16642;SDS011;8435;52.184;5.406;2022-12-26T07:30:53;5.80;;;5.23;;
16642;SDS011;8435;52.184;5.406;2022-12-26T07:33:21;6.30;;;5.70;;
16642;SDS011;8435;52.184;5.406;2022-12-26T07:35:48;6.87;;;6.13;;
16642;SDS011;8435;52.184;5.406;2022-12-26T07:38:15;6.27;;;5.67;;
16642;SDS011;8435;52.184;5.406;2022-12-26T07:40:42;5.50;;;5.00;;
16642;SDS011;8435;52.184;5.406;2022-12-26T07:43:09;7.40;;;5.40;;
16642;SDS011;8435;52.184;5.406;2022-12-26T07:45:36;5.30;;;4.73;;
16642;SDS011;8435;52.184;5.406;2022-12-26T07:48:06;5.87;;;5.27;;
16642;SDS011;8435;52.184;5.406;2022-12-26T07:50:34;6.10;;;5.20;;
16642;SDS011;8435;52.184;5.406;2022-12-26T07:53:00;5.80;;;5.30;;
16642;SDS011;8435;52.184;5.406;2022-12-26T07:55:27;9.53;;;5.53;;
16642;SDS011;8435;52.184;5.406;2022-12-26T07:57:54;6.27;;;4.90;;
16642;SDS011;8435;52.184;5.406;2022-12-26T08:00:21;5.47;;;4.67;;
16642;SDS011;8435;52.184;5.406;2022-12-26T08:02:48;5.10;;;4.70;;
16642;SDS011;8435;52.184;5.406;2022-12-26T08:05:22;5.30;;;4.80;;
16642;SDS011;8435;52.184;5.406;2022-12-26T08:07:49;4.80;;;4.40;;
16642;SDS011;8435;52.184;5.406;2022-12-26T08:10:16;6.97;;;4.63;;
16642;SDS011;8435;52.184;5.406;2022-12-26T08:12:43;5.13;;;4.20;;
16642;SDS011;8435;52.184;5.406;2022-12-26T08:15:10;4.40;;;3.83;;
16642;SDS011;8435;52.184;5.406;2022-12-26T08:17:37;4.40;;;3.70;;
16642;SDS011;8435;52.184;5.406;2022-12-26T08:20:05;4.10;;;3.70;;
16642;SDS011;8435;52.184;5.406;2022-12-26T08:22:33;3.90;;;3.30;;
16642;SDS011;8435;52.184;5.406;2022-12-26T08:25:00;3.63;;;3.30;;
16642;SDS011;8435;52.184;5.406;2022-12-26T08:27:27;4.40;;;2.97;;
16642;SDS011;8435;52.184;5.406;2022-12-26T08:29:54;6.17;;;3.30;;
16642;SDS011;8435;52.184;5.406;2022-12-26T08:32:20;3.97;;;3.10;;
16642;SDS011;8435;52.184;5.406;2022-12-26T08:34:47;7.20;;;3.40;;
16642;SDS011;8435;52.184;5.406;2022-12-26T08:37:14;5.63;;;3.23;;
16642;SDS011;8435;52.184;5.406;2022-12-26T08:39:44;4.87;;;3.00;;
16642;SDS011;8435;52.184;5.406;2022-12-26T08:42:11;3.30;;;2.60;;
16642;SDS011;8435;52.184;5.406;2022-12-26T08:44:37;4.77;;;2.80;;
16642;SDS011;8435;52.184;5.406;2022-12-26T08:47:04;5.97;;;3.20;;
16642;SDS011;8435;52.184;5.406;2022-12-26T08:49:31;4.63;;;2.93;;
16642;SDS011;8435;52.184;5.406;2022-12-26T08:51:58;4.53;;;2.90;;
16642;SDS011;8435;52.184;5.406;2022-12-26T08:54:24;5.23;;;2.80;;
16642;SDS011;8435;52.184;5.406;2022-12-26T08:56:53;3.57;;;3.27;;
16642;SDS011;8435;52.184;5.406;2022-12-26T08:59:19;6.50;;;3.10;;
16642;SDS011;8435;52.184;5.406;2022-12-26T09:01:46;3.27;;;2.53;;
16642;SDS011;8435;52.184;5.406;2022-12-26T09:04:13;3.13;;;2.77;;
16642;SDS011;8435;52.184;5.406;2022-12-26T09:06:40;4.60;;;3.20;;
16642;SDS011;8435;52.184;5.406;2022-12-26T09:09:08;5.70;;;2.77;;
16642;SDS011;8435;52.184;5.406;2022-12-26T09:11:37;3.00;;;2.23;;
16642;SDS011;8435;52.184;5.406;2022-12-26T09:14:05;2.70;;;2.10;;
16642;SDS011;8435;52.184;5.406;2022-12-26T09:16:37;1.77;;;1.53;;
16642;SDS011;8435;52.184;5.406;2022-12-26T09:19:07;3.40;;;1.60;;
16642;SDS011;8435;52.184;5.406;2022-12-26T09:21:36;4.83;;;1.70;;
16642;SDS011;8435;52.184;5.406;2022-12-26T09:24:03;3.27;;;1.70;;
16642;SDS011;8435;52.184;5.406;2022-12-26T09:26:31;3.77;;;1.90;;
16642;SDS011;8435;52.184;5.406;2022-12-26T09:28:59;2.90;;;1.40;;
16642;SDS011;8435;52.184;5.406;2022-12-26T09:31:28;3.33;;;1.67;;
16642;SDS011;8435;52.184;5.406;2022-12-26T09:33:56;4.70;;;1.53;;
16642;SDS011;8435;52.184;5.406;2022-12-26T09:36:24;3.20;;;1.73;;
16642;SDS011;8435;52.184;5.406;2022-12-26T09:38:54;4.47;;;1.70;;
16642;SDS011;8435;52.184;5.406;2022-12-26T09:41:27;4.57;;;1.70;;
16642;SDS011;8435;52.184;5.406;2022-12-26T09:44:05;2.53;;;1.47;;
16642;SDS011;8435;52.184;5.406;2022-12-26T09:46:42;3.40;;;1.70;;
16642;SDS011;8435;52.184;5.406;2022-12-26T09:49:15;5.70;;;1.70;;
16642;SDS011;8435;52.184;5.406;2022-12-26T09:51:45;8.20;;;2.17;;
16642;SDS011;8435;52.184;5.406;2022-12-26T09:54:17;9.70;;;2.73;;
16642;SDS011;8435;52.184;5.406;2022-12-26T09:56:50;7.73;;;2.23;;
16642;SDS011;8435;52.184;5.406;2022-12-26T09:59:18;7.80;;;2.47;;
16642;SDS011;8435;52.184;5.406;2022-12-26T10:01:49;9.90;;;2.30;;
16642;SDS011;8435;52.184;5.406;2022-12-26T10:04:19;7.27;;;2.13;;
16642;SDS011;8435;52.184;5.406;2022-12-26T10:06:51;9.50;;;1.93;;
16642;SDS011;8435;52.184;5.406;2022-12-26T10:09:43;7.50;;;1.87;;
16642;SDS011;8435;52.184;5.406;2022-12-26T10:12:23;6.27;;;1.93;;
16642;SDS011;8435;52.184;5.406;2022-12-26T10:15:04;8.37;;;2.30;;
16642;SDS011;8435;52.184;5.406;2022-12-26T10:17:43;5.17;;;1.87;;
16642;SDS011;8435;52.184;5.406;2022-12-26T10:20:20;7.93;;;2.30;;
16642;SDS011;8435;52.184;5.406;2022-12-26T10:22:57;5.77;;;2.17;;
16642;SDS011;8435;52.184;5.406;2022-12-26T10:25:44;10.17;;;2.23;;
16642;SDS011;8435;52.184;5.406;2022-12-26T10:28:15;6.20;;;2.00;;
16642;SDS011;8435;52.184;5.406;2022-12-26T10:30:47;5.30;;;1.63;;
16642;SDS011;8435;52.184;5.406;2022-12-26T10:33:19;5.23;;;2.13;;
16642;SDS011;8435;52.184;5.406;2022-12-26T10:35:52;3.53;;;1.60;;
16642;SDS011;8435;52.184;5.406;2022-12-26T10:38:22;4.97;;;2.40;;
16642;SDS011;8435;52.184;5.406;2022-12-26T10:40:55;7.63;;;2.20;;
16642;SDS011;8435;52.184;5.406;2022-12-26T10:43:26;8.57;;;1.90;;
16642;SDS011;8435;52.184;5.406;2022-12-26T10:46:01;8.53;;;1.70;;
16642;SDS011;8435;52.184;5.406;2022-12-26T10:48:47;8.23;;;1.93;;
16642;SDS011;8435;52.184;5.406;2022-12-26T10:51:14;5.87;;;1.57;;
16642;SDS011;8435;52.184;5.406;2022-12-26T10:53:43;5.60;;;1.60;;
16642;SDS011;8435;52.184;5.406;2022-12-26T10:56:13;5.50;;;1.67;;
16642;SDS011;8435;52.184;5.406;2022-12-26T10:58:40;5.27;;;1.70;;
16642;SDS011;8435;52.184;5.406;2022-12-26T11:01:28;3.97;;;1.33;;
16642;SDS011;8435;52.184;5.406;2022-12-26T11:03:59;4.60;;;2.03;;
16642;SDS011;8435;52.184;5.406;2022-12-26T11:06:27;5.07;;;1.60;;
16642;SDS011;8435;52.184;5.406;2022-12-26T11:09:00;3.23;;;1.30;;
16642;SDS011;8435;52.184;5.406;2022-12-26T11:11:31;3.93;;;1.50;;
16642;SDS011;8435;52.184;5.406;2022-12-26T11:14:27;2.30;;;1.20;;
16642;SDS011;8435;52.184;5.406;2022-12-26T11:16:58;4.93;;;1.23;;
16642;SDS011;8435;52.184;5.406;2022-12-26T11:19:31;3.43;;;1.23;;
16642;SDS011;8435;52.184;5.406;2022-12-26T11:22:13;5.10;;;1.63;;
16642;SDS011;8435;52.184;5.406;2022-12-26T11:27:38;5.97;;;1.37;;
16642;SDS011;8435;52.184;5.406;2022-12-26T11:30:10;3.10;;;1.10;;
16642;SDS011;8435;52.184;5.406;2022-12-26T11:32:50;6.53;;;1.20;;
16642;SDS011;8435;52.184;5.406;2022-12-26T11:35:32;4.07;;;1.13;;
16642;SDS011;8435;52.184;5.406;2022-12-26T11:38:02;5.03;;;1.37;;
16642;SDS011;8435;52.184;5.406;2022-12-26T11:40:34;4.17;;;1.23;;
16642;SDS011;8435;52.184;5.406;2022-12-26T11:43:04;2.77;;;1.10;;
16642;SDS011;8435;52.184;5.406;2022-12-26T11:45:40;2.67;;;1.00;;
16642;SDS011;8435;52.184;5.406;2022-12-26T11:48:17;4.30;;;1.27;;
16642;SDS011;8435;52.184;5.406;2022-12-26T11:50:51;5.97;;;1.30;;
16642;SDS011;8435;52.184;5.406;2022-12-26T11:53:19;2.43;;;0.80;;
16642;SDS011;8435;52.184;5.406;2022-12-26T11:55:56;4.03;;;1.00;;
16642;SDS011;8435;52.184;5.406;2022-12-26T11:58:26;3.03;;;0.93;;
16642;SDS011;8435;52.184;5.406;2022-12-26T12:01:04;3.93;;;0.90;;
16642;SDS011;8435;52.184;5.406;2022-12-26T12:03:34;2.23;;;0.93;;
16642;SDS011;8435;52.184;5.406;2022-12-26T12:06:09;3.63;;;0.93;;
16642;SDS011;8435;52.184;5.406;2022-12-26T12:08:46;2.87;;;1.20;;
16642;SDS011;8435;52.184;5.406;2022-12-26T12:11:24;3.20;;;1.00;;
16642;SDS011;8435;52.184;5.406;2022-12-26T12:14:00;2.80;;;0.87;;
16642;SDS011;8435;52.184;5.406;2022-12-26T12:16:47;5.80;;;1.33;;
16642;SDS011;8435;52.184;5.406;2022-12-26T12:19:26;2.27;;;0.97;;
16642;SDS011;8435;52.184;5.406;2022-12-26T12:22:12;2.53;;;1.07;;
16642;SDS011;8435;52.184;5.406;2022-12-26T12:25:02;2.97;;;1.20;;
16642;SDS011;8435;52.184;5.406;2022-12-26T12:27:46;6.37;;;1.30;;
16642;SDS011;8435;52.184;5.406;2022-12-26T12:30:18;5.43;;;1.80;;
16642;SDS011;8435;52.184;5.406;2022-12-26T12:32:55;2.40;;;1.40;;
16642;SDS011;8435;52.184;5.406;2022-12-26T12:35:41;5.23;;;1.97;;
16642;SDS011;8435;52.184;5.406;2022-12-26T12:38:24;4.23;;;1.73;;
16642;SDS011;8435;52.184;5.406;2022-12-26T12:40:58;3.30;;;1.20;;
16642;SDS011;8435;52.184;5.406;2022-12-26T12:43:37;3.67;;;1.20;;
16642;SDS011;8435;52.184;5.406;2022-12-26T12:46:11;5.50;;;1.57;;
16642;SDS011;8435;52.184;5.406;2022-12-26T12:48:50;3.70;;;1.30;;
16642;SDS011;8435;52.184;5.406;2022-12-26T12:51:26;5.13;;;1.30;;
16642;SDS011;8435;52.184;5.406;2022-12-26T12:54:18;3.07;;;1.17;;
16642;SDS011;8435;52.184;5.406;2022-12-26T12:57:07;2.77;;;1.20;;
16642;SDS011;8435;52.184;5.406;2022-12-26T12:59:41;3.70;;;1.30;;
16642;SDS011;8435;52.184;5.406;2022-12-26T13:02:28;3.93;;;1.93;;
16642;SDS011;8435;52.184;5.406;2022-12-26T13:05:02;4.50;;;1.60;;
16642;SDS011;8435;52.184;5.406;2022-12-26T13:07:38;2.90;;;1.20;;
16642;SDS011;8435;52.184;5.406;2022-12-26T13:10:12;2.97;;;1.10;;
16642;SDS011;8435;52.184;5.406;2022-12-26T13:12:44;3.67;;;1.60;;
16642;SDS011;8435;52.184;5.406;2022-12-26T13:15:19;3.07;;;1.30;;
16642;SDS011;8435;52.184;5.406;2022-12-26T13:17:55;4.33;;;1.60;;
16642;SDS011;8435;52.184;5.406;2022-12-26T13:20:30;2.50;;;1.10;;
16642;SDS011;8435;52.184;5.406;2022-12-26T13:23:03;2.33;;;1.10;;
16642;SDS011;8435;52.184;5.406;2022-12-26T13:25:56;6.53;;;1.40;;
16642;SDS011;8435;52.184;5.406;2022-12-26T13:28:33;4.63;;;0.90;;
16642;SDS011;8435;52.184;5.406;2022-12-26T13:31:04;2.40;;;1.03;;
16642;SDS011;8435;52.184;5.406;2022-12-26T13:33:31;3.83;;;1.20;;
16642;SDS011;8435;52.184;5.406;2022-12-26T13:36:01;3.27;;;1.10;;
16642;SDS011;8435;52.184;5.406;2022-12-26T13:41:34;2.77;;;1.23;;
16642;SDS011;8435;52.184;5.406;2022-12-26T13:44:25;2.47;;;1.00;;
16642;SDS011;8435;52.184;5.406;2022-12-26T13:46:53;3.17;;;1.57;;
16642;SDS011;8435;52.184;5.406;2022-12-26T13:49:24;2.53;;;1.30;;
16642;SDS011;8435;52.184;5.406;2022-12-26T13:51:57;3.63;;;1.57;;
16642;SDS011;8435;52.184;5.406;2022-12-26T13:57:47;5.30;;;1.67;;
16642;SDS011;8435;52.184;5.406;2022-12-26T14:00:53;3.83;;;1.50;;
16642;SDS011;8435;52.184;5.406;2022-12-26T14:12:09;4.67;;;1.27;;
16642;SDS011;8435;52.184;5.406;2022-12-26T14:15:04;2.53;;;1.20;;
16642;SDS011;8435;52.184;5.406;2022-12-26T14:17:44;4.83;;;1.50;;
16642;SDS011;8435;52.184;5.406;2022-12-26T14:20:21;5.43;;;1.67;;
16642;SDS011;8435;52.184;5.406;2022-12-26T14:23:00;3.93;;;1.27;;
16642;SDS011;8435;52.184;5.406;2022-12-26T14:25:33;2.93;;;1.30;;
16642;SDS011;8435;52.184;5.406;2022-12-26T14:28:16;3.13;;;1.60;;
16642;SDS011;8435;52.184;5.406;2022-12-26T14:30:51;3.20;;;1.30;;
16642;SDS011;8435;52.184;5.406;2022-12-26T14:33:29;4.03;;;1.40;;
16642;SDS011;8435;52.184;5.406;2022-12-26T14:38:48;5.80;;;1.90;;
16642;SDS011;8435;52.184;5.406;2022-12-26T14:41:24;4.40;;;1.40;;
16642;SDS011;8435;52.184;5.406;2022-12-26T14:44:15;3.47;;;1.50;;
16642;SDS011;8435;52.184;5.406;2022-12-26T14:47:04;4.73;;;1.77;;
16642;SDS011;8435;52.184;5.406;2022-12-26T14:49:35;3.70;;;1.70;;
16642;SDS011;8435;52.184;5.406;2022-12-26T14:54:57;6.67;;;1.63;;
16642;SDS011;8435;52.184;5.406;2022-12-26T14:57:41;5.50;;;1.53;;
16642;SDS011;8435;52.184;5.406;2022-12-26T15:00:14;7.13;;;2.00;;
16642;SDS011;8435;52.184;5.406;2022-12-26T15:09:10;5.03;;;1.70;;
16642;SDS011;8435;52.184;5.406;2022-12-26T15:12:09;6.27;;;2.80;;
16642;SDS011;8435;52.184;5.406;2022-12-26T15:14:56;7.77;;;3.70;;
16642;SDS011;8435;52.184;5.406;2022-12-26T15:17:40;5.47;;;2.90;;
16642;SDS011;8435;52.184;5.406;2022-12-26T15:20:26;6.40;;;3.10;;
16642;SDS011;8435;52.184;5.406;2022-12-26T15:26:16;6.80;;;2.23;;
16642;SDS011;8435;52.184;5.406;2022-12-26T15:29:00;10.23;;;2.23;;
16642;SDS011;8435;52.184;5.406;2022-12-26T15:31:43;6.37;;;2.90;;
16642;SDS011;8435;52.184;5.406;2022-12-26T15:34:31;8.37;;;5.43;;
16642;SDS011;8435;52.184;5.406;2022-12-26T15:37:16;10.97;;;5.67;;
16642;SDS011;8435;52.184;5.406;2022-12-26T15:40:01;8.83;;;3.07;;
16642;SDS011;8435;52.184;5.406;2022-12-26T15:42:41;8.97;;;2.70;;
16642;SDS011;8435;52.184;5.406;2022-12-26T15:45:21;5.10;;;2.30;;
16642;SDS011;8435;52.184;5.406;2022-12-26T15:47:57;10.10;;;5.87;;
16642;SDS011;8435;52.184;5.406;2022-12-26T15:50:29;6.37;;;2.90;;
16642;SDS011;8435;52.184;5.406;2022-12-26T15:53:04;4.77;;;2.20;;
16642;SDS011;8435;52.184;5.406;2022-12-26T15:55:45;6.40;;;2.17;;
16642;SDS011;8435;52.184;5.406;2022-12-26T15:58:33;6.90;;;1.93;;
16642;SDS011;8435;52.184;5.406;2022-12-26T16:04:05;5.50;;;1.97;;
16642;SDS011;8435;52.184;5.406;2022-12-26T16:06:42;4.80;;;1.77;;
16642;SDS011;8435;52.184;5.406;2022-12-26T16:09:35;4.40;;;2.10;;
16642;SDS011;8435;52.184;5.406;2022-12-26T16:15:00;6.10;;;2.90;;
16642;SDS011;8435;52.184;5.406;2022-12-26T16:17:42;5.40;;;2.37;;